sensor_id;sensor_type;location;lat;lon;timestamp;P1;durP1;ratioP1;P2;durP2;ratioP2
19173;SDS011;9719;49.322;8.536;2024-03-23T00:54:13;6.20;;;4.13;;
19173;SDS011;9719;49.322;8.536;2024-03-23T00:59:14;7.68;;;3.05;;
19173;SDS011;9719;49.322;8.536;2024-03-23T01:04:16;2.97;;;2.78;;
19173;SDS011;9719;49.322;8.536;2024-03-23T01:09:19;4.65;;;3.53;;
19173;SDS011;9719;49.322;8.536;2024-03-23T01:14:20;4.22;;;3.28;;
19173;SDS011;9719;49.322;8.536;2024-03-23T01:19:22;4.32;;;3.25;;
19173;SDS011;9719;49.322;8.536;2024-03-23T01:24:25;4.72;;;3.30;;
19173;SDS011;9719;49.322;8.536;2024-03-23T01:29:27;3.03;;;2.72;;
19173;SDS011;9719;49.322;8.536;2024-03-23T01:34:28;3.55;;;2.75;;
19173;SDS011;9719;49.322;8.536;2024-03-23T01:39:31;2.55;;;2.40;;
19173;SDS011;9719;49.322;8.536;2024-03-23T01:44:33;2.63;;;2.42;;
19173;SDS011;9719;49.322;8.536;2024-03-23T01:49:35;2.80;;;2.60;;
19173;SDS011;9719;49.322;8.536;2024-03-23T01:54:38;3.63;;;2.83;;
19173;SDS011;9719;49.322;8.536;2024-03-23T01:59:41;3.25;;;2.95;;
19173;SDS011;9719;49.322;8.536;2024-03-23T02:04:42;5.53;;;2.45;;
19173;SDS011;9719;49.322;8.536;2024-03-23T02:09:45;5.22;;;2.95;;
19173;SDS011;9719;49.322;8.536;2024-03-23T02:14:47;3.38;;;2.35;;
19173;SDS011;9719;49.322;8.536;2024-03-23T02:19:50;3.22;;;2.83;;
19173;SDS011;9719;49.322;8.536;2024-03-23T02:24:53;3.80;;;3.25;;
19173;SDS011;9719;49.322;8.536;2024-03-23T02:29:55;3.22;;;2.95;;
19173;SDS011;9719;49.322;8.536;2024-03-23T02:34:56;4.65;;;3.08;;
19173;SDS011;9719;49.322;8.536;2024-03-23T02:39:59;4.25;;;2.92;;
19173;SDS011;9719;49.322;8.536;2024-03-23T02:45:01;3.47;;;3.05;;
19173;SDS011;9719;49.322;8.536;2024-03-23T02:50:05;3.58;;;3.28;;
19173;SDS011;9719;49.322;8.536;2024-03-23T02:55:09;2.95;;;2.75;;
19173;SDS011;9719;49.322;8.536;2024-03-23T03:00:11;3.05;;;2.85;;
19173;SDS011;9719;49.322;8.536;2024-03-23T03:05:13;2.33;;;2.17;;
19173;SDS011;9719;49.322;8.536;2024-03-23T03:10:16;2.60;;;2.40;;
19173;SDS011;9719;49.322;8.536;2024-03-23T03:15:17;3.20;;;2.90;;
19173;SDS011;9719;49.322;8.536;2024-03-23T03:20:19;3.53;;;2.83;;
19173;SDS011;9719;49.322;8.536;2024-03-23T03:25:24;3.05;;;2.63;;
19173;SDS011;9719;49.322;8.536;2024-03-23T03:30:26;4.40;;;4.00;;
19173;SDS011;9719;49.322;8.536;2024-03-23T03:35:28;3.45;;;3.15;;
19173;SDS011;9719;49.322;8.536;2024-03-23T03:40:31;3.42;;;2.90;;
19173;SDS011;9719;49.322;8.536;2024-03-23T03:45:33;3.70;;;3.13;;
19173;SDS011;9719;49.322;8.536;2024-03-23T03:50:34;3.60;;;3.20;;
19173;SDS011;9719;49.322;8.536;2024-03-23T03:55:37;3.88;;;3.38;;
19173;SDS011;9719;49.322;8.536;2024-03-23T04:00:39;4.97;;;3.65;;
19173;SDS011;9719;49.322;8.536;2024-03-23T04:05:41;4.10;;;3.33;;
19173;SDS011;9719;49.322;8.536;2024-03-23T04:10:44;5.93;;;4.25;;
19173;SDS011;9719;49.322;8.536;2024-03-23T04:15:45;7.32;;;5.00;;
19173;SDS011;9719;49.322;8.536;2024-03-23T04:20:47;5.70;;;4.07;;
19173;SDS011;9719;49.322;8.536;2024-03-23T04:25:50;4.32;;;3.90;;
19173;SDS011;9719;49.322;8.536;2024-03-23T04:30:53;4.20;;;3.53;;
19173;SDS011;9719;49.322;8.536;2024-03-23T04:35:55;5.40;;;4.90;;
19173;SDS011;9719;49.322;8.536;2024-03-23T04:40:58;4.45;;;3.47;;
19173;SDS011;9719;49.322;8.536;2024-03-23T04:46:00;3.47;;;3.17;;
19173;SDS011;9719;49.322;8.536;2024-03-23T04:51:02;6.30;;;3.65;;
19173;SDS011;9719;49.322;8.536;2024-03-23T04:56:05;3.58;;;3.33;;
19173;SDS011;9719;49.322;8.536;2024-03-23T05:01:07;3.10;;;2.85;;
19173;SDS011;9719;49.322;8.536;2024-03-23T05:06:09;2.75;;;2.33;;
19173;SDS011;9719;49.322;8.536;2024-03-23T05:11:11;3.60;;;2.58;;
19173;SDS011;9719;49.322;8.536;2024-03-23T05:16:13;1.90;;;1.80;;
19173;SDS011;9719;49.322;8.536;2024-03-23T05:21:15;2.58;;;1.13;;
19173;SDS011;9719;49.322;8.536;2024-03-23T05:26:18;4.93;;;2.03;;
19173;SDS011;9719;49.322;8.536;2024-03-23T05:31:23;2.90;;;1.05;;
19173;SDS011;9719;49.322;8.536;2024-03-23T05:36:25;2.83;;;1.45;;
19173;SDS011;9719;49.322;8.536;2024-03-23T05:41:28;1.50;;;1.42;;
19173;SDS011;9719;49.322;8.536;2024-03-23T05:46:29;5.50;;;2.45;;
19173;SDS011;9719;49.322;8.536;2024-03-23T05:51:31;0.70;;;0.70;;
19173;SDS011;9719;49.322;8.536;2024-03-23T05:56:34;0.95;;;0.70;;
19173;SDS011;9719;49.322;8.536;2024-03-23T06:01:36;0.88;;;0.88;;
19173;SDS011;9719;49.322;8.536;2024-03-23T06:06:39;0.80;;;0.80;;
19173;SDS011;9719;49.322;8.536;2024-03-23T06:11:42;5.07;;;1.15;;
19173;SDS011;9719;49.322;8.536;2024-03-23T06:16:43;0.63;;;0.63;;
19173;SDS011;9719;49.322;8.536;2024-03-23T06:21:45;0.80;;;0.80;;
19173;SDS011;9719;49.322;8.536;2024-03-23T06:26:48;2.75;;;1.17;;
19173;SDS011;9719;49.322;8.536;2024-03-23T06:31:53;0.73;;;0.70;;
19173;SDS011;9719;49.322;8.536;2024-03-23T06:36:54;0.55;;;0.55;;
19173;SDS011;9719;49.322;8.536;2024-03-23T06:41:57;47.85;;;7.38;;
19173;SDS011;9719;49.322;8.536;2024-03-23T06:46:59;0.55;;;0.55;;
19173;SDS011;9719;49.322;8.536;2024-03-23T06:52:02;0.50;;;0.50;;
19173;SDS011;9719;49.322;8.536;2024-03-23T06:57:06;0.52;;;0.52;;
19173;SDS011;9719;49.322;8.536;2024-03-23T07:02:07;0.80;;;0.80;;
19173;SDS011;9719;49.322;8.536;2024-03-23T07:07:09;0.65;;;0.65;;
19173;SDS011;9719;49.322;8.536;2024-03-23T07:12:13;0.60;;;0.60;;
19173;SDS011;9719;49.322;8.536;2024-03-23T07:17:14;0.60;;;0.60;;
19173;SDS011;9719;49.322;8.536;2024-03-23T07:22:18;0.50;;;0.50;;
19173;SDS011;9719;49.322;8.536;2024-03-23T07:27:21;0.80;;;0.80;;
19173;SDS011;9719;49.322;8.536;2024-03-23T07:32:23;1.37;;;1.27;;
19173;SDS011;9719;49.322;8.536;2024-03-23T07:37:26;1.23;;;1.13;;
19173;SDS011;9719;49.322;8.536;2024-03-23T07:42:29;0.90;;;0.90;;
19173;SDS011;9719;49.322;8.536;2024-03-23T07:47:31;1.27;;;0.85;;
19173;SDS011;9719;49.322;8.536;2024-03-23T07:52:33;0.70;;;0.70;;
19173;SDS011;9719;49.322;8.536;2024-03-23T07:57:36;0.98;;;0.70;;
19173;SDS011;9719;49.322;8.536;2024-03-23T08:02:37;2.35;;;1.25;;
19173;SDS011;9719;49.322;8.536;2024-03-23T08:07:39;0.70;;;0.70;;
19173;SDS011;9719;49.322;8.536;2024-03-23T08:12:42;1.23;;;1.05;;
19173;SDS011;9719;49.322;8.536;2024-03-23T08:17:44;2.30;;;1.17;;
19173;SDS011;9719;49.322;8.536;2024-03-23T08:22:45;1.05;;;0.95;;
19173;SDS011;9719;49.322;8.536;2024-03-23T08:27:48;3.72;;;1.40;;
19173;SDS011;9719;49.322;8.536;2024-03-23T08:32:50;1.17;;;1.08;;
19173;SDS011;9719;49.322;8.536;2024-03-23T08:37:52;1.38;;;1.30;;
19173;SDS011;9719;49.322;8.536;2024-03-23T08:42:54;1.90;;;1.45;;
19173;SDS011;9719;49.322;8.536;2024-03-23T08:47:56;0.90;;;0.90;;
19173;SDS011;9719;49.322;8.536;2024-03-23T08:52:58;0.88;;;0.88;;
19173;SDS011;9719;49.322;8.536;2024-03-23T08:58:01;3.17;;;1.45;;
19173;SDS011;9719;49.322;8.536;2024-03-23T09:03:04;1.27;;;1.15;;
19173;SDS011;9719;49.322;8.536;2024-03-23T09:08:06;1.73;;;1.27;;
19173;SDS011;9719;49.322;8.536;2024-03-23T09:13:09;1.48;;;1.25;;
19173;SDS011;9719;49.322;8.536;2024-03-23T09:18:11;3.40;;;1.55;;
19173;SDS011;9719;49.322;8.536;2024-03-23T09:23:13;3.80;;;1.60;;
19173;SDS011;9719;49.322;8.536;2024-03-23T09:28:16;3.97;;;1.23;;
19173;SDS011;9719;49.322;8.536;2024-03-23T09:33:17;1.95;;;1.77;;
19173;SDS011;9719;49.322;8.536;2024-03-23T09:38:19;1.95;;;1.55;;
19173;SDS011;9719;49.322;8.536;2024-03-23T09:43:22;4.18;;;1.40;;
19173;SDS011;9719;49.322;8.536;2024-03-23T09:48:23;3.97;;;1.85;;
19173;SDS011;9719;49.322;8.536;2024-03-23T09:53:27;3.47;;;1.63;;
19173;SDS011;9719;49.322;8.536;2024-03-23T09:58:30;1.83;;;1.70;;
19173;SDS011;9719;49.322;8.536;2024-03-23T10:03:41;7.60;;;1.67;;
19173;SDS011;9719;49.322;8.536;2024-03-23T10:08:43;4.22;;;1.92;;
19173;SDS011;9719;49.322;8.536;2024-03-23T10:13:47;1.58;;;1.38;;
19173;SDS011;9719;49.322;8.536;2024-03-23T10:18:48;3.17;;;2.00;;
19173;SDS011;9719;49.322;8.536;2024-03-23T10:23:50;6.18;;;1.88;;
19173;SDS011;9719;49.322;8.536;2024-03-23T10:28:54;4.20;;;1.65;;
19173;SDS011;9719;49.322;8.536;2024-03-23T10:33:59;1.92;;;1.38;;
19173;SDS011;9719;49.322;8.536;2024-03-23T10:39:01;5.30;;;1.33;;
19173;SDS011;9719;49.322;8.536;2024-03-23T10:44:04;3.33;;;1.17;;
19173;SDS011;9719;49.322;8.536;2024-03-23T10:49:07;1.92;;;1.45;;
19173;SDS011;9719;49.322;8.536;2024-03-23T10:54:08;1.70;;;1.60;;
19173;SDS011;9719;49.322;8.536;2024-03-23T10:59:14;4.10;;;1.27;;
19173;SDS011;9719;49.322;8.536;2024-03-23T11:04:28;3.72;;;2.42;;
19173;SDS011;9719;49.322;8.536;2024-03-23T11:09:40;2.60;;;1.40;;
19173;SDS011;9719;49.322;8.536;2024-03-23T11:14:46;2.25;;;1.00;;
19173;SDS011;9719;49.322;8.536;2024-03-23T11:19:53;1.73;;;1.17;;
19173;SDS011;9719;49.322;8.536;2024-03-23T11:24:56;2.80;;;0.80;;
19173;SDS011;9719;49.322;8.536;2024-03-23T11:30:10;1.33;;;1.10;;
19173;SDS011;9719;49.322;8.536;2024-03-23T11:35:28;1.30;;;0.75;;
19173;SDS011;9719;49.322;8.536;2024-03-23T11:40:33;2.88;;;1.10;;
19173;SDS011;9719;49.322;8.536;2024-03-23T11:45:37;1.38;;;0.90;;
19173;SDS011;9719;49.322;8.536;2024-03-23T11:50:40;2.28;;;1.35;;
19173;SDS011;9719;49.322;8.536;2024-03-23T11:55:44;1.30;;;0.90;;
19173;SDS011;9719;49.322;8.536;2024-03-23T12:00:52;1.83;;;0.80;;
19173;SDS011;9719;49.322;8.536;2024-03-23T12:05:54;1.75;;;0.93;;
19173;SDS011;9719;49.322;8.536;2024-03-23T12:11:04;2.13;;;1.70;;
19173;SDS011;9719;49.322;8.536;2024-03-23T12:16:11;2.75;;;1.27;;
19173;SDS011;9719;49.322;8.536;2024-03-23T12:21:14;1.38;;;1.27;;
19173;SDS011;9719;49.322;8.536;2024-03-23T12:26:16;1.23;;;1.20;;
19173;SDS011;9719;49.322;8.536;2024-03-23T12:31:19;1.98;;;1.40;;
19173;SDS011;9719;49.322;8.536;2024-03-23T12:36:21;1.13;;;0.90;;
19173;SDS011;9719;49.322;8.536;2024-03-23T12:41:23;1.20;;;1.17;;
19173;SDS011;9719;49.322;8.536;2024-03-23T12:46:26;2.20;;;1.10;;
19173;SDS011;9719;49.322;8.536;2024-03-23T12:51:27;1.58;;;0.80;;
19173;SDS011;9719;49.322;8.536;2024-03-23T12:56:29;2.70;;;1.65;;
19173;SDS011;9719;49.322;8.536;2024-03-23T13:01:32;1.88;;;1.77;;
19173;SDS011;9719;49.322;8.536;2024-03-23T13:06:34;0.80;;;0.80;;
19173;SDS011;9719;49.322;8.536;2024-03-23T13:11:36;0.70;;;0.68;;
19173;SDS011;9719;49.322;8.536;2024-03-23T13:16:39;0.60;;;0.60;;
19173;SDS011;9719;49.322;8.536;2024-03-23T13:21:40;0.70;;;0.70;;
19173;SDS011;9719;49.322;8.536;2024-03-23T13:26:42;0.60;;;0.60;;
19173;SDS011;9719;49.322;8.536;2024-03-23T13:31:45;0.98;;;0.95;;
19173;SDS011;9719;49.322;8.536;2024-03-23T13:36:47;0.85;;;0.85;;
19173;SDS011;9719;49.322;8.536;2024-03-23T13:41:49;0.90;;;0.90;;
19173;SDS011;9719;49.322;8.536;2024-03-23T13:46:52;0.75;;;0.75;;
19173;SDS011;9719;49.322;8.536;2024-03-23T13:51:53;0.70;;;0.70;;
19173;SDS011;9719;49.322;8.536;2024-03-23T13:56:57;0.70;;;0.70;;
19173;SDS011;9719;49.322;8.536;2024-03-23T14:02:00;0.60;;;0.60;;
19173;SDS011;9719;49.322;8.536;2024-03-23T14:07:02;0.77;;;0.77;;
19173;SDS011;9719;49.322;8.536;2024-03-23T14:12:04;0.90;;;0.90;;
19173;SDS011;9719;49.322;8.536;2024-03-23T14:17:10;0.82;;;0.82;;
19173;SDS011;9719;49.322;8.536;2024-03-23T14:22:14;0.65;;;0.65;;
19173;SDS011;9719;49.322;8.536;2024-03-23T14:27:17;4.22;;;0.80;;
19173;SDS011;9719;49.322;8.536;2024-03-23T14:32:21;0.70;;;0.70;;
19173;SDS011;9719;49.322;8.536;2024-03-23T14:37:22;0.75;;;0.75;;
19173;SDS011;9719;49.322;8.536;2024-03-23T14:42:24;0.60;;;0.60;;
19173;SDS011;9719;49.322;8.536;2024-03-23T14:47:27;0.60;;;0.60;;
19173;SDS011;9719;49.322;8.536;2024-03-23T14:52:29;2.35;;;0.98;;
19173;SDS011;9719;49.322;8.536;2024-03-23T14:57:31;3.35;;;1.10;;
19173;SDS011;9719;49.322;8.536;2024-03-23T15:02:34;2.72;;;0.85;;
19173;SDS011;9719;49.322;8.536;2024-03-23T15:07:36;0.70;;;0.70;;
19173;SDS011;9719;49.322;8.536;2024-03-23T15:12:38;0.98;;;0.90;;
19173;SDS011;9719;49.322;8.536;2024-03-23T15:17:41;1.55;;;1.45;;
19173;SDS011;9719;49.322;8.536;2024-03-23T15:22:44;0.68;;;0.63;;
19173;SDS011;9719;49.322;8.536;2024-03-23T15:27:46;1.00;;;1.00;;
19173;SDS011;9719;49.322;8.536;2024-03-23T15:32:49;1.58;;;0.70;;
19173;SDS011;9719;49.322;8.536;2024-03-23T15:37:51;0.60;;;0.60;;
19173;SDS011;9719;49.322;8.536;2024-03-23T15:42:52;1.33;;;1.00;;
19173;SDS011;9719;49.322;8.536;2024-03-23T15:47:55;0.73;;;0.73;;
19173;SDS011;9719;49.322;8.536;2024-03-23T15:52:57;0.60;;;0.60;;
19173;SDS011;9719;49.322;8.536;2024-03-23T15:57:59;0.70;;;0.70;;
19173;SDS011;9719;49.322;8.536;2024-03-23T16:03:02;1.65;;;1.60;;
19173;SDS011;9719;49.322;8.536;2024-03-23T16:08:03;2.70;;;1.00;;
19173;SDS011;9719;49.322;8.536;2024-03-23T16:13:08;0.90;;;0.90;;
19173;SDS011;9719;49.322;8.536;2024-03-23T16:18:11;0.90;;;0.90;;
19173;SDS011;9719;49.322;8.536;2024-03-23T16:23:12;0.70;;;0.70;;
19173;SDS011;9719;49.322;8.536;2024-03-23T16:28:14;1.02;;;0.93;;
19173;SDS011;9719;49.322;8.536;2024-03-23T16:33:17;1.17;;;1.17;;
19173;SDS011;9719;49.322;8.536;2024-03-23T16:38:19;1.25;;;1.23;;
19173;SDS011;9719;49.322;8.536;2024-03-23T16:43:20;0.85;;;0.85;;
19173;SDS011;9719;49.322;8.536;2024-03-23T16:48:24;0.87;;;0.87;;
19173;SDS011;9719;49.322;8.536;2024-03-23T16:53:26;0.80;;;0.80;;
19173;SDS011;9719;49.322;8.536;2024-03-23T16:58:30;1.02;;;1.02;;
19173;SDS011;9719;49.322;8.536;2024-03-23T17:03:34;1.00;;;1.00;;
19173;SDS011;9719;49.322;8.536;2024-03-23T17:08:36;0.75;;;0.75;;
19173;SDS011;9719;49.322;8.536;2024-03-23T17:13:37;0.90;;;0.90;;
19173;SDS011;9719;49.322;8.536;2024-03-23T17:18:40;0.90;;;0.90;;
19173;SDS011;9719;49.322;8.536;2024-03-23T17:23:42;0.87;;;0.87;;
19173;SDS011;9719;49.322;8.536;2024-03-23T17:28:44;0.80;;;0.80;;
19173;SDS011;9719;49.322;8.536;2024-03-23T17:33:49;0.90;;;0.90;;
19173;SDS011;9719;49.322;8.536;2024-03-23T17:38:51;1.00;;;1.00;;
19173;SDS011;9719;49.322;8.536;2024-03-23T17:43:54;1.05;;;1.02;;
19173;SDS011;9719;49.322;8.536;2024-03-23T17:48:57;1.00;;;1.00;;
19173;SDS011;9719;49.322;8.536;2024-03-23T17:53:59;1.17;;;1.08;;
19173;SDS011;9719;49.322;8.536;2024-03-23T17:59:01;1.10;;;1.10;;
19173;SDS011;9719;49.322;8.536;2024-03-23T18:04:04;0.90;;;0.90;;
19173;SDS011;9719;49.322;8.536;2024-03-23T18:09:05;1.90;;;1.80;;
19173;SDS011;9719;49.322;8.536;2024-03-23T18:14:09;4.60;;;2.70;;
19173;SDS011;9719;49.322;8.536;2024-03-23T18:19:12;1.67;;;1.57;;
19173;SDS011;9719;49.322;8.536;2024-03-23T18:24:14;1.20;;;1.20;;
19173;SDS011;9719;49.322;8.536;2024-03-23T18:29:16;1.13;;;1.13;;
19173;SDS011;9719;49.322;8.536;2024-03-23T18:34:19;2.85;;;2.70;;
19173;SDS011;9719;49.322;8.536;2024-03-23T18:39:21;1.40;;;1.40;;
19173;SDS011;9719;49.322;8.536;2024-03-23T18:44:23;0.90;;;0.90;;
19173;SDS011;9719;49.322;8.536;2024-03-23T18:49:26;0.95;;;0.95;;
19173;SDS011;9719;49.322;8.536;2024-03-23T18:54:27;1.10;;;1.00;;
19173;SDS011;9719;49.322;8.536;2024-03-23T18:59:29;1.10;;;1.10;;
19173;SDS011;9719;49.322;8.536;2024-03-23T19:04:32;1.50;;;1.40;;
19173;SDS011;9719;49.322;8.536;2024-03-23T19:09:33;1.10;;;1.10;;
19173;SDS011;9719;49.322;8.536;2024-03-23T19:14:35;1.00;;;1.00;;
19173;SDS011;9719;49.322;8.536;2024-03-23T19:19:41;1.25;;;1.25;;
19173;SDS011;9719;49.322;8.536;2024-03-23T19:24:42;1.60;;;1.02;;
19173;SDS011;9719;49.322;8.536;2024-03-23T19:29:44;1.10;;;1.10;;
19173;SDS011;9719;49.322;8.536;2024-03-23T19:34:47;1.07;;;0.97;;
19173;SDS011;9719;49.322;8.536;2024-03-23T19:39:48;1.30;;;1.20;;
19173;SDS011;9719;49.322;8.536;2024-03-23T19:44:50;1.43;;;1.43;;
19173;SDS011;9719;49.322;8.536;2024-03-23T19:49:53;1.20;;;1.20;;
19173;SDS011;9719;49.322;8.536;2024-03-23T19:54:55;1.83;;;1.30;;
19173;SDS011;9719;49.322;8.536;2024-03-23T19:59:56;3.83;;;1.90;;
19173;SDS011;9719;49.322;8.536;2024-03-23T20:04:59;3.30;;;1.65;;
19173;SDS011;9719;49.322;8.536;2024-03-23T20:10:02;1.35;;;1.35;;
19173;SDS011;9719;49.322;8.536;2024-03-23T20:15:05;1.45;;;1.35;;
19173;SDS011;9719;49.322;8.536;2024-03-23T20:20:09;2.10;;;1.23;;
19173;SDS011;9719;49.322;8.536;2024-03-23T20:25:11;1.60;;;1.50;;
19173;SDS011;9719;49.322;8.536;2024-03-23T20:30:13;0.93;;;0.93;;
19173;SDS011;9719;49.322;8.536;2024-03-23T20:35:16;2.97;;;1.47;;
19173;SDS011;9719;49.322;8.536;2024-03-23T20:40:18;1.10;;;1.10;;
19173;SDS011;9719;49.322;8.536;2024-03-23T20:45:19;1.30;;;1.30;;
19173;SDS011;9719;49.322;8.536;2024-03-23T20:50:22;0.87;;;0.87;;
19173;SDS011;9719;49.322;8.536;2024-03-23T20:55:24;1.43;;;1.33;;
19173;SDS011;9719;49.322;8.536;2024-03-23T21:00:26;1.33;;;1.23;;
19173;SDS011;9719;49.322;8.536;2024-03-23T21:05:29;1.10;;;1.10;;
19173;SDS011;9719;49.322;8.536;2024-03-23T21:10:31;0.90;;;0.90;;
19173;SDS011;9719;49.322;8.536;2024-03-23T21:15:32;1.50;;;1.33;;
19173;SDS011;9719;49.322;8.536;2024-03-23T21:20:36;1.40;;;1.40;;
19173;SDS011;9719;49.322;8.536;2024-03-23T21:25:38;1.50;;;1.00;;
19173;SDS011;9719;49.322;8.536;2024-03-23T21:30:40;2.05;;;1.10;;
19173;SDS011;9719;49.322;8.536;2024-03-23T21:35:44;1.75;;;1.65;;
19173;SDS011;9719;49.322;8.536;2024-03-23T21:40:50;3.38;;;1.42;;
19173;SDS011;9719;49.322;8.536;2024-03-23T21:45:56;1.25;;;1.25;;
19173;SDS011;9719;49.322;8.536;2024-03-23T21:51:01;1.53;;;1.43;;
19173;SDS011;9719;49.322;8.536;2024-03-23T21:56:03;1.33;;;1.33;;
19173;SDS011;9719;49.322;8.536;2024-03-23T22:01:05;0.93;;;0.93;;
19173;SDS011;9719;49.322;8.536;2024-03-23T22:06:09;1.33;;;1.30;;
19173;SDS011;9719;49.322;8.536;2024-03-23T22:11:10;1.00;;;1.00;;
19173;SDS011;9719;49.322;8.536;2024-03-23T22:16:12;1.53;;;1.40;;
19173;SDS011;9719;49.322;8.536;2024-03-23T22:21:15;1.17;;;1.17;;
19173;SDS011;9719;49.322;8.536;2024-03-23T22:26:17;1.27;;;1.23;;
19173;SDS011;9719;49.322;8.536;2024-03-23T22:31:19;0.95;;;0.95;;
19173;SDS011;9719;49.322;8.536;2024-03-23T22:36:22;1.20;;;1.20;;
19173;SDS011;9719;49.322;8.536;2024-03-23T22:41:24;1.50;;;1.40;;
19173;SDS011;9719;49.322;8.536;2024-03-23T22:46:25;0.90;;;0.90;;
19173;SDS011;9719;49.322;8.536;2024-03-23T22:51:28;1.10;;;1.10;;
19173;SDS011;9719;49.322;8.536;2024-03-23T22:56:30;2.03;;;1.50;;
19173;SDS011;9719;49.322;8.536;2024-03-23T23:01:31;1.17;;;1.17;;
19173;SDS011;9719;49.322;8.536;2024-03-23T23:06:34;1.27;;;1.20;;
19173;SDS011;9719;49.322;8.536;2024-03-23T23:11:36;1.23;;;1.02;;
19173;SDS011;9719;49.322;8.536;2024-03-23T23:16:38;1.23;;;1.23;;
19173;SDS011;9719;49.322;8.536;2024-03-23T23:21:41;1.40;;;1.40;;
19173;SDS011;9719;49.322;8.536;2024-03-23T23:26:43;1.80;;;1.57;;
19173;SDS011;9719;49.322;8.536;2024-03-23T23:31:45;2.17;;;2.08;;
19173;SDS011;9719;49.322;8.536;2024-03-23T23:36:50;1.48;;;1.48;;
19173;SDS011;9719;49.322;8.536;2024-03-23T23:41:52;1.00;;;1.00;;
19173;SDS011;9719;49.322;8.536;2024-03-23T23:46:53;1.00;;;1.00;;
19173;SDS011;9719;49.322;8.536;2024-03-23T23:51:56;1.10;;;1.10;;
19173;SDS011;9719;49.322;8.536;2024-03-23T23:56:58;1.20;;;1.20;;
